Time;durP1;ratioP1;P1;durP2;ratioP2;P2;SDS_P1;SDS_P2;PMS_P1;PMS_P2;Temp;Humidity;BMP_temperature;BMP_pressure;BME280_temperature;BME280_humidity;BME280_pressure;Samples;Min_cycle;Max_cycle;Signal;HPM_P1;HPM_P2
2021/11/28 00:00:50;;;;;;;6.70;5.63;;;;;;;3.47;76.74;97680.31;5016445;28;20472;-61
2021/11/28 00:03:18;;;;;;;7.70;6.25;;;;;;;3.49;76.52;97681.16;5034480;28;20128;-60
2021/11/28 00:05:53;;;;;;;7.20;5.97;;;;;;;3.49;77.04;97682.88;5000085;28;20389;-60
2021/11/28 00:15:55;;;;;;;8.25;6.45;;;;;;;3.48;76.47;97676.88;5034175;28;20038;-61
2021/11/28 00:18:21;;;;;;;11.68;7.03;;;;;;;3.48;76.96;97681.19;5000013;28;20425;-61
2021/11/28 00:20:47;;;;;;;11.90;7.30;;;;;;;3.47;76.54;97677.75;5033742;28;20029;-61
2021/11/28 00:23:13;;;;;;;10.98;6.75;;;;;;;3.47;76.24;97687.13;5033845;28;20096;-61
2021/11/28 00:25:38;;;;;;;10.82;7.97;;;;;;;3.48;76.69;97689.69;5033666;28;20029;-62
2021/11/28 00:28:04;;;;;;;8.57;6.68;;;;;;;3.50;76.92;97689.72;5033476;28;20045;-61
2021/11/28 00:30:30;;;;;;;8.93;7.60;;;;;;;3.50;76.62;97682.03;5016106;28;20459;-61
2021/11/28 00:32:58;;;;;;;8.85;5.72;;;;;;;3.51;77.19;97688.84;4999919;28;20044;-61
2021/11/28 00:35:23;;;;;;;8.15;6.95;;;;;;;3.50;76.34;97688.00;4999430;28;20404;-61
2021/11/28 00:37:49;;;;;;;7.72;6.72;;;;;;;3.48;76.64;97682.00;5033561;28;20484;-61
2021/11/28 00:40:14;;;;;;;8.73;6.78;;;;;;;3.52;76.58;97693.13;5033543;28;20048;-62
2021/11/28 00:42:40;;;;;;;10.18;6.40;;;;;;;3.51;76.64;97681.16;5033317;28;20040;-61
2021/11/28 00:45:06;;;;;;;8.80;7.22;;;;;;;3.51;76.66;97678.59;5033482;28;20061;-61
2021/11/28 00:47:32;;;;;;;8.85;7.25;;;;;;;3.50;76.44;97672.66;5033676;28;20106;-62
2021/11/28 00:50:07;;;;;;;9.35;7.05;;;;;;;3.52;76.75;97685.44;5015873;28;20041;-61
2021/11/28 00:52:33;;;;;;;11.77;8.48;;;;;;;3.51;76.16;97686.28;5033514;28;20038;-60
2021/11/28 00:55:00;;;;;;;9.55;7.65;;;;;;;3.51;77.28;97688.84;4999360;28;20124;-60
2021/11/28 00:57:27;;;;;;;9.45;8.45;;;;;;;3.50;76.66;97688.00;4999278;28;20519;-61
2021/11/28 00:59:54;;;;;;;8.23;7.13;;;;;;;3.50;77.05;97689.72;5015928;28;20115;-61
2021/11/28 01:02:20;;;;;;;10.60;7.50;;;;;;;3.51;76.56;97681.16;4999097;28;20045;-61
2021/11/28 01:04:46;;;;;;;11.48;7.47;;;;;;;3.52;77.13;97684.59;5015839;28;20485;-62
2021/11/28 01:07:12;;;;;;;10.05;7.50;;;;;;;3.53;76.74;97691.44;4999703;28;20128;-61
2021/11/28 01:09:38;;;;;;;10.32;7.55;;;;;;;3.50;76.51;97693.13;5015569;28;20091;-61
2021/11/28 01:12:05;;;;;;;8.05;6.65;;;;;;;3.49;76.89;97693.97;5033509;28;20030;-60
2021/11/28 01:14:31;;;;;;;9.43;7.30;;;;;;;3.51;77.09;97699.09;4999258;28;20485;-61
2021/11/28 01:16:56;;;;;;;9.48;7.60;;;;;;;3.53;77.07;97707.66;5033132;28;20032;-61
2021/11/28 01:19:23;;;;;;;12.40;8.60;;;;;;;3.53;76.59;97701.69;5015914;28;20033;-61
2021/11/28 01:21:57;;;;;;;9.10;7.63;;;;;;;3.54;76.95;97703.41;5033156;28;20034;-61
2021/11/28 01:24:23;;;;;;;11.57;7.50;;;;;;;3.53;76.72;97705.09;4999041;28;20038;-62
2021/11/28 01:26:50;;;;;;;10.38;7.70;;;;;;;3.54;76.62;97701.69;5036105;28;20037;-62
2021/11/28 01:29:15;;;;;;;9.25;6.82;;;;;;;3.55;76.80;97705.13;5003010;28;20045;-62
2021/11/28 01:31:41;;;;;;;9.88;8.15;;;;;;;3.56;76.63;97717.91;5036880;28;20033;-61
2021/11/28 01:34:07;;;;;;;10.00;7.22;;;;;;;3.56;76.71;97706.84;5019523;28;20049;-62
2021/11/28 01:36:34;;;;;;;8.90;6.68;;;;;;;3.56;76.97;97711.97;5019046;28;20095;-62
2021/11/28 01:39:00;;;;;;;10.32;7.78;;;;;;;3.57;76.54;97716.25;5002672;28;20042;-62
2021/11/28 01:41:25;;;;;;;9.70;8.05;;;;;;;3.55;76.81;97718.78;5036640;28;20044;-61
2021/11/28 01:43:52;;;;;;;13.15;8.20;;;;;;;3.55;76.27;97710.25;5019098;28;20034;-61
2021/11/28 01:46:21;;;;;;;10.07;7.80;;;;;;;3.55;77.08;97716.22;5002613;28;20562;-61
2021/11/28 01:48:46;;;;;;;10.43;7.63;;;;;;;3.57;76.54;97723.91;5019204;28;20443;-61
2021/11/28 01:51:13;;;;;;;11.50;7.25;;;;;;;3.55;77.08;97726.44;5019058;28;20041;-61
2021/11/28 01:53:38;;;;;;;9.73;8.70;;;;;;;3.57;76.77;97729.88;5002395;28;20030;-61
2021/11/28 01:56:05;;;;;;;10.20;7.85;;;;;;;3.58;76.78;97730.75;5018899;28;20044;-61
2021/11/28 01:58:31;;;;;;;9.65;8.23;;;;;;;3.57;76.36;97729.88;5002366;28;20484;-61
2021/11/28 02:01:02;;;;;;;12.05;8.88;;;;;;;3.57;76.68;97727.31;5036439;28;20041;-61
2021/11/28 02:03:28;;;;;;;10.38;8.35;;;;;;;3.57;76.80;97727.31;5036588;28;20045;-61
2021/11/28 02:05:58;;;;;;;10.02;7.57;;;;;;;3.56;76.71;97724.75;5036684;28;20040;-61
2021/11/28 02:08:25;;;;;;;15.05;8.38;;;;;;;3.56;77.02;97728.16;5019181;28;20037;-61
2021/11/28 02:10:50;;;;;;;10.25;8.20;;;;;;;3.58;76.28;97739.28;5018649;28;20035;-61
2021/11/28 02:13:19;;;;;;;10.68;8.02;;;;;;;3.54;76.63;97729.84;5036252;28;20112;-61
2021/11/28 02:15:46;;;;;;;13.90;8.93;;;;;;;3.57;76.63;97729.03;5002159;28;20067;-61
2021/11/28 02:18:12;;;;;;;10.18;7.93;;;;;;;3.57;76.58;97732.44;5036204;28;20069;-61
2021/11/28 02:20:46;;;;;;;12.68;7.88;;;;;;;3.57;76.94;97727.31;5002028;28;20029;-60
2021/11/28 02:23:12;;;;;;;11.60;8.45;;;;;;;3.57;76.95;97732.44;5036553;28;20045;-60
2021/11/28 02:25:38;;;;;;;11.25;8.07;;;;;;;3.58;76.27;97725.63;5001880;28;20037;-61
2021/11/28 02:28:04;;;;;;;11.50;8.68;;;;;;;3.57;76.77;97729.03;5036115;28;20048;-61
2021/11/28 02:30:30;;;;;;;13.57;7.55;;;;;;;3.58;76.67;97726.47;5018391;28;20041;-62
2021/11/28 02:32:57;;;;;;;11.38;7.57;;;;;;;3.60;76.87;97734.16;5017994;28;20041;-60
2021/11/28 02:35:23;;;;;;;11.18;8.60;;;;;;;3.60;76.58;97737.59;5035757;28;20038;-61
2021/11/28 02:37:49;;;;;;;10.10;8.10;;;;;;;3.59;76.65;97738.44;5001275;28;20092;-61
2021/11/28 02:40:18;;;;;;;10.35;8.10;;;;;;;3.60;76.47;97736.72;5035928;28;20033;-61
2021/11/28 02:42:45;;;;;;;12.30;8.82;;;;;;;3.60;76.56;97739.28;5035715;28;20049;-61
2021/11/28 02:45:12;;;;;;;11.63;8.80;;;;;;;3.61;76.93;97743.56;5018059;28;20045;-61
2021/11/28 02:47:38;;;;;;;12.48;8.25;;;;;;;3.60;76.26;97747.84;5017926;28;20477;-61
2021/11/28 02:50:05;;;;;;;12.38;8.93;;;;;;;3.60;76.87;97742.72;5035448;28;20064;-61
2021/11/28 02:52:31;;;;;;;13.60;9.45;;;;;;;3.61;77.27;97746.13;5002072;28;20072;-61
2021/11/28 02:54:56;;;;;;;13.20;8.20;;;;;;;3.60;76.87;97737.59;5035662;28;20061;-61
2021/11/28 02:57:22;;;;;;;15.02;9.43;;;;;;;3.61;76.67;97747.00;5017732;28;20437;-60
2021/11/28 02:59:48;;;;;;;17.80;9.82;;;;;;;3.61;77.05;97741.00;5035383;28;20030;-61
2021/11/28 03:02:13;;;;;;;13.93;9.90;;;;;;;3.62;76.46;97740.16;5035557;28;20077;-61
2021/11/28 03:04:39;;;;;;;15.18;9.50;;;;;;;3.61;76.70;97741.88;5035230;28;20032;-60
2021/11/28 03:07:05;;;;;;;16.77;10.30;;;;;;;3.62;76.69;97732.47;5035282;28;20048;-61
2021/11/28 03:09:30;;;;;;;14.20;9.95;;;;;;;3.61;76.73;97729.06;5017934;28;20110;-61
2021/11/28 03:11:56;;;;;;;18.45;10.57;;;;;;;3.61;76.51;97726.50;5035416;28;20099;-60
2021/11/28 03:14:21;;;;;;;14.25;9.13;;;;;;;3.61;77.18;97726.50;5017537;28;20565;-60
2021/11/28 03:16:47;;;;;;;15.30;9.90;;;;;;;3.61;76.97;97734.19;5034865;28;20061;-61
2021/11/28 03:19:13;;;;;;;14.88;9.88;;;;;;;3.60;76.64;97719.66;5035259;28;20048;-61
2021/11/28 03:21:39;;;;;;;12.38;8.73;;;;;;;3.60;77.21;97719.66;5017060;28;20489;-61
2021/11/28 03:24:06;;;;;;;14.07;9.35;;;;;;;3.63;76.85;97736.75;5001424;28;20026;-62
2021/11/28 03:26:40;;;;;;;14.80;9.70;;;;;;;3.61;76.82;97731.63;5017109;28;20037;-62
2021/11/28 03:29:11;;;;;;;15.07;9.80;;;;;;;3.62;77.27;97732.47;5035045;28;20048;-61
2021/11/28 03:31:41;;;;;;;13.10;9.38;;;;;;;3.63;76.85;97741.88;5017378;28;20041;-60
2021/11/28 03:34:08;;;;;;;14.23;9.68;;;;;;;3.62;76.77;97743.59;5035195;28;20038;-61
2021/11/28 03:36:39;;;;;;;14.60;9.95;;;;;;;3.62;76.76;97751.28;5035355;28;20507;-60
2021/11/28 03:39:07;;;;;;;17.42;10.88;;;;;;;3.63;76.49;97749.56;5000845;28;20069;-60
2021/11/28 03:41:33;;;;;;;19.38;10.73;;;;;;;3.63;76.96;97754.69;5000466;28;20033;-60
2021/11/28 03:43:59;;;;;;;16.02;9.48;;;;;;;3.63;76.73;97757.25;5034485;28;20041;-60
2021/11/28 03:46:27;;;;;;;16.17;9.60;;;;;;;3.64;76.63;97757.28;5000327;28;20041;-60
2021/11/28 03:48:53;;;;;;;16.55;9.60;;;;;;;3.65;77.16;97766.69;5016597;28;20037;-60
2021/11/28 03:51:19;;;;;;;13.35;9.23;;;;;;;3.63;77.27;97749.56;5034383;28;20607;-60
2021/11/28 03:53:45;;;;;;;15.75;9.68;;;;;;;3.63;77.04;97757.25;5034180;28;20132;-61
2021/11/28 03:56:10;;;;;;;13.85;10.18;;;;;;;3.62;76.70;97751.28;5000246;28;20038;-61
2021/11/28 03:58:38;;;;;;;16.50;10.15;;;;;;;3.64;76.56;97753.84;5034153;28;20040;-61
2021/11/28 04:01:05;;;;;;;12.48;9.00;;;;;;;3.65;77.33;97770.94;5016459;28;20033;-61
2021/11/28 04:03:31;;;;;;;13.95;10.63;;;;;;;3.65;76.73;97776.94;5033726;28;20481;-60
2021/11/28 04:05:57;;;;;;;12.00;9.70;;;;;;;3.65;77.03;97771.81;5033963;28;20045;-61
2021/11/28 04:08:22;;;;;;;12.48;9.00;;;;;;;3.66;76.49;97770.09;5034369;28;20049;-60
2021/11/28 04:10:50;;;;;;;14.85;9.18;;;;;;;3.66;76.93;97770.94;5034064;28;20029;-60
2021/11/28 04:13:16;;;;;;;16.48;10.15;;;;;;;3.65;76.44;97779.50;5016456;28;20041;-61
2021/11/28 04:15:42;;;;;;;15.63;10.48;;;;;;;3.69;76.72;97787.16;4999921;28;20038;-61
2021/11/28 04:18:07;;;;;;;12.98;9.35;;;;;;;3.67;76.54;97787.16;5000401;28;20037;-61
2021/11/28 04:20:33;;;;;;;13.18;8.95;;;;;;;3.67;76.68;97776.94;5033880;28;20431;-61
2021/11/28 04:23:00;;;;;;;14.68;9.80;;;;;;;3.69;77.03;97787.16;5033858;28;20029;-61
2021/11/28 04:25:26;;;;;;;15.52;10.15;;;;;;;3.66;76.37;97786.28;5016132;28;20123;-60
2021/11/28 04:27:51;;;;;;;15.20;9.88;;;;;;;3.69;76.98;97789.72;5033758;28;20124;-60
2021/11/28 04:30:17;;;;;;;13.60;9.45;;;;;;;3.69;77.13;97787.16;5033959;28;20174;-61
2021/11/28 04:32:42;;;;;;;14.82;10.90;;;;;;;3.69;76.69;97785.47;5016096;28;20045;-61
2021/11/28 04:35:08;;;;;;;14.75;9.50;;;;;;;3.69;77.07;97788.03;5033447;28;20033;-62
2021/11/28 04:37:34;;;;;;;18.08;10.80;;;;;;;3.70;76.46;97799.13;5033570;28;20029;-61
2021/11/28 04:39:59;;;;;;;14.00;10.15;;;;;;;3.69;76.93;97805.09;5015967;28;20034;-61
2021/11/28 04:42:27;;;;;;;15.32;9.90;;;;;;;3.69;76.90;97812.78;4999602;28;20525;-61
2021/11/28 04:44:53;;;;;;;15.93;9.80;;;;;;;3.70;76.70;97811.94;4999466;28;20552;-61
2021/11/28 04:47:19;;;;;;;15.10;10.40;;;;;;;3.70;76.36;97807.69;5015887;28;20156;-61
2021/11/28 04:49:45;;;;;;;18.25;10.43;;;;;;;3.69;77.11;97811.09;5033499;28;20073;-61
2021/11/28 04:52:11;;;;;;;17.23;11.30;;;;;;;3.70;76.91;97810.25;4999509;28;20088;-61
2021/11/28 04:54:36;;;;;;;18.83;11.45;;;;;;;3.71;76.40;97813.66;5015746;28;20030;-61
2021/11/28 04:57:03;;;;;;;15.30;9.93;;;;;;;3.70;76.55;97817.94;5033475;28;20037;-61
2021/11/28 04:59:29;;;;;;;19.42;12.18;;;;;;;3.70;76.73;97817.06;5001308;28;20477;-62
2021/11/28 05:01:54;;;;;;;16.58;10.38;;;;;;;3.71;77.03;97821.34;5039481;28;20103;-61
2021/11/28 05:04:20;;;;;;;16.35;11.13;;;;;;;3.70;76.59;97823.06;5039953;28;20037;-61
2021/11/28 05:06:45;;;;;;;19.27;11.38;;;;;;;3.71;76.64;97826.47;5022734;28;20044;-62
2021/11/28 05:09:11;;;;;;;18.02;10.30;;;;;;;3.71;76.84;97826.47;5039787;28;20030;-61
2021/11/28 05:11:37;;;;;;;19.42;12.02;;;;;;;3.72;77.09;97833.31;5022358;28;20093;-61
2021/11/28 05:14:02;;;;;;;19.30;11.15;;;;;;;3.71;77.43;97832.47;5039927;28;20041;-61
2021/11/28 05:16:28;;;;;;;16.52;11.85;;;;;;;3.71;76.86;97831.59;5039754;28;20388;-62
2021/11/28 05:18:53;;;;;;;15.52;11.55;;;;;;;3.72;76.80;97834.19;5039724;28;20493;-61
2021/11/28 05:21:19;;;;;;;21.40;12.20;;;;;;;3.72;76.91;97835.88;5039642;28;20041;-61
2021/11/28 05:23:45;;;;;;;18.48;12.10;;;;;;;3.73;76.93;97845.28;5039725;28;20041;-61
2021/11/28 05:26:10;;;;;;;20.17;11.40;;;;;;;3.73;76.81;97842.72;5005643;28;20041;-61
2021/11/28 05:28:36;;;;;;;19.58;12.02;;;;;;;3.74;76.85;97847.00;5039701;28;20038;-62
2021/11/28 05:31:02;;;;;;;19.33;11.73;;;;;;;3.73;77.33;97848.72;5039854;28;20041;-62
2021/11/28 05:33:28;;;;;;;20.30;13.18;;;;;;;3.73;76.71;97845.28;5039699;28;20113;-61
2021/11/28 05:35:54;;;;;;;20.42;12.02;;;;;;;3.74;77.16;97852.13;5022159;28;20037;-61
2021/11/28 05:38:19;;;;;;;20.77;11.45;;;;;;;3.74;76.80;97862.38;5022295;28;20069;-61
2021/11/28 05:40:45;;;;;;;21.08;12.68;;;;;;;3.73;76.92;97855.53;5039466;28;20432;-61
2021/11/28 05:43:11;;;;;;;17.73;11.80;;;;;;;3.73;76.90;97861.53;5039590;28;20041;-61
2021/11/28 05:45:36;;;;;;;19.08;11.20;;;;;;;3.72;77.26;97864.94;5039241;28;20033;-61
2021/11/28 05:48:02;;;;;;;20.63;12.48;;;;;;;3.73;77.22;97860.66;5021916;28;20090;-61
2021/11/28 05:50:30;;;;;;;18.70;11.95;;;;;;;3.73;76.69;97868.34;5039920;28;20033;-61
2021/11/28 05:52:56;;;;;;;21.25;12.55;;;;;;;3.73;76.95;97871.78;5005798;28;20049;-61
2021/11/28 05:55:22;;;;;;;22.17;13.73;;;;;;;3.74;76.92;97877.75;5021851;28;20029;-61
2021/11/28 05:57:47;;;;;;;21.08;12.15;;;;;;;3.73;76.92;97873.47;5039345;28;20033;-62
2021/11/28 06:00:16;;;;;;;21.92;12.48;;;;;;;3.73;76.75;97876.91;5022052;28;20033;-62
2021/11/28 06:02:41;;;;;;;22.17;12.90;;;;;;;3.72;77.39;97875.19;5021582;28;20049;-62
2021/11/28 06:05:09;;;;;;;20.33;12.85;;;;;;;3.73;76.96;97883.72;5021941;28;20457;-61
2021/11/28 06:07:34;;;;;;;20.95;12.40;;;;;;;3.73;76.83;97882.03;5005431;28;20513;-61
2021/11/28 06:10:00;;;;;;;20.50;12.00;;;;;;;3.74;77.32;97886.28;5039361;28;20063;-61
2021/11/28 06:12:25;;;;;;;26.30;13.43;;;;;;;3.74;77.50;97890.56;5035914;28;20084;-61
2021/11/28 06:14:51;;;;;;;21.98;13.45;;;;;;;3.73;76.69;97889.72;5002195;28;20072;-61
2021/11/28 06:17:16;;;;;;;27.02;13.77;;;;;;;3.74;77.10;97893.97;5018278;28;20033;-62
2021/11/28 06:19:42;;;;;;;25.48;14.15;;;;;;;3.74;77.27;97896.53;5018969;28;20044;-61
2021/11/28 06:22:09;;;;;;;24.48;13.40;;;;;;;3.74;77.13;97895.69;5036275;28;20370;-61
2021/11/28 06:24:38;;;;;;;27.60;13.25;;;;;;;3.74;77.46;97896.53;5035902;28;20432;-61
2021/11/28 06:27:05;;;;;;;24.52;14.95;;;;;;;3.74;77.20;97895.69;5002024;28;20041;-62
2021/11/28 06:29:30;;;;;;;24.33;13.80;;;;;;;3.74;77.49;97901.66;5002117;28;20045;-61
2021/11/28 06:31:56;;;;;;;21.90;13.00;;;;;;;3.74;77.50;97900.81;5001893;28;20033;-61
2021/11/28 06:34:23;;;;;;;26.13;13.25;;;;;;;3.74;76.68;97903.38;5035900;28;20029;-62
2021/11/28 06:36:49;;;;;;;26.25;14.80;;;;;;;3.74;77.16;97916.19;5001764;28;20037;-61
2021/11/28 06:39:14;;;;;;;20.77;11.27;;;;;;;3.75;77.03;97917.91;5018287;28;20037;-61
2021/11/28 06:41:40;;;;;;;24.00;13.55;;;;;;;3.75;77.26;97913.63;5035740;28;20385;-61
2021/11/28 06:44:06;;;;;;;21.45;13.05;;;;;;;3.75;76.80;97912.78;5035684;28;20033;-61
2021/11/28 06:46:32;;;;;;;21.80;12.30;;;;;;;3.75;76.84;97925.59;5018240;28;20041;-61
2021/11/28 06:48:57;;;;;;;22.13;13.30;;;;;;;3.76;77.01;97928.16;5018033;28;20037;-61
2021/11/28 06:51:23;;;;;;;21.92;13.25;;;;;;;3.76;77.19;97925.59;5017936;28;20038;-61
2021/11/28 06:53:48;;;;;;;20.50;12.13;;;;;;;3.77;77.19;97926.47;5035526;28;20038;-61
2021/11/28 06:56:14;;;;;;;21.58;12.20;;;;;;;3.77;77.01;97934.16;5035413;28;20037;-61
2021/11/28 06:58:40;;;;;;;24.92;14.73;;;;;;;3.78;77.00;97939.28;5035242;28;20036;-62
2021/11/28 07:01:05;;;;;;;18.98;12.93;;;;;;;3.77;76.79;97941.84;5035316;28;20030;-61
2021/11/28 07:03:31;;;;;;;22.45;13.45;;;;;;;3.78;77.39;97948.69;5035844;28;20508;-61
2021/11/28 07:05:56;;;;;;;20.40;12.20;;;;;;;3.78;77.73;97948.69;5035328;28;20096;-61
2021/11/28 07:08:22;;;;;;;23.15;13.52;;;;;;;3.77;77.10;97947.81;5017989;28;20045;-61
2021/11/28 07:10:48;;;;;;;19.13;11.93;;;;;;;3.78;77.08;97954.66;5035097;28;20034;-62
2021/11/28 07:13:14;;;;;;;24.85;13.48;;;;;;;3.78;77.50;97959.78;5017595;28;20095;-61
2021/11/28 07:15:39;;;;;;;24.98;14.30;;;;;;;3.78;77.24;97964.91;5035569;28;20504;-62
2021/11/28 07:18:06;;;;;;;21.38;13.02;;;;;;;3.79;77.10;97971.75;5017391;28;20045;-61
2021/11/28 07:20:33;;;;;;;17.80;11.77;;;;;;;3.79;76.99;97971.75;5035053;28;20036;-61
2021/11/28 07:23:00;;;;;;;21.30;12.63;;;;;;;3.78;77.04;97969.19;4999811;28;20128;-61
2021/11/28 07:25:26;;;;;;;19.77;12.15;;;;;;;3.79;77.24;97968.34;5001016;28;20045;-61
2021/11/28 07:27:52;;;;;;;23.55;13.00;;;;;;;3.79;77.19;97979.44;5017197;28;20492;-61
2021/11/28 07:30:19;;;;;;;22.00;13.25;;;;;;;3.79;77.52;97982.00;5034744;28;20033;-60
2021/11/28 07:32:44;;;;;;;24.65;13.43;;;;;;;3.81;77.67;97987.16;5017290;28;20425;-60
2021/11/28 07:35:10;;;;;;;20.00;12.80;;;;;;;3.81;77.52;97989.72;5017398;28;20100;-60
2021/11/28 07:37:36;;;;;;;20.63;12.27;;;;;;;3.80;77.35;97993.13;5034639;28;20401;-60
2021/11/28 07:40:03;;;;;;;21.05;12.27;;;;;;;3.81;77.85;97999.97;5017303;28;20137;-60
2021/11/28 07:42:28;;;;;;;19.17;11.00;;;;;;;3.80;77.23;97995.69;5034533;28;20033;-60
2021/11/28 07:44:54;;;;;;;19.88;12.10;;;;;;;3.80;77.28;97998.25;5034495;28;20546;-61
2021/11/28 07:47:20;;;;;;;20.80;12.57;;;;;;;3.80;77.15;98008.50;5034514;28;20038;-61
2021/11/28 07:49:45;;;;;;;20.15;11.20;;;;;;;3.81;77.01;98011.06;5016626;28;20040;-60
2021/11/28 07:52:11;;;;;;;19.58;11.95;;;;;;;3.81;77.76;98017.91;5034488;28;20033;-61
2021/11/28 07:54:36;;;;;;;20.50;12.60;;;;;;;3.81;77.87;98017.91;5034552;28;20033;-61
2021/11/28 07:57:04;;;;;;;21.48;12.40;;;;;;;3.80;77.67;98014.47;5016686;28;20048;-60
2021/11/28 07:59:33;;;;;;;21.80;11.75;;;;;;;3.80;77.00;98019.59;5034213;28;20038;-61
2021/11/28 08:01:59;;;;;;;18.70;12.48;;;;;;;3.81;77.30;98023.03;4996530;28;20056;-61
2021/11/28 08:04:25;;;;;;;20.23;11.30;;;;;;;3.82;77.21;98029.84;5014895;28;20030;-61
2021/11/28 08:06:50;;;;;;;21.88;12.43;;;;;;;3.81;77.16;98029.00;5014598;28;20041;-61
2021/11/28 08:09:16;;;;;;;18.25;11.70;;;;;;;3.83;76.94;98030.72;5014388;28;20033;-60
2021/11/28 08:11:41;;;;;;;19.55;12.30;;;;;;;3.82;77.18;98027.28;5013424;28;20034;-60
2021/11/28 08:14:07;;;;;;;21.65;12.90;;;;;;;3.82;77.29;98037.53;5014228;28;20037;-61
2021/11/28 08:16:33;;;;;;;20.30;12.73;;;;;;;3.83;77.83;98040.97;5014297;28;20038;-61
2021/11/28 08:18:58;;;;;;;19.63;11.73;;;;;;;3.82;77.59;98040.09;5014173;28;20026;-60
2021/11/28 08:21:27;;;;;;;20.98;12.50;;;;;;;3.81;77.28;98044.38;5014238;28;20045;-61
2021/11/28 08:23:54;;;;;;;18.27;11.60;;;;;;;3.82;77.13;98047.78;5014585;28;20422;-61
2021/11/28 08:26:20;;;;;;;19.33;12.07;;;;;;;3.83;77.74;98038.41;5012977;28;20366;-61
2021/11/28 08:28:46;;;;;;;20.15;10.85;;;;;;;3.83;77.31;98048.66;5014036;28;20507;-62
2021/11/28 08:31:12;;;;;;;22.00;12.85;;;;;;;3.83;77.37;98048.66;5014088;28;20065;-61
2021/11/28 08:33:38;;;;;;;20.30;12.48;;;;;;;3.84;77.66;98050.38;5012519;28;20061;-61
2021/11/28 08:36:04;;;;;;;18.50;11.40;;;;;;;3.82;77.75;98042.66;4996168;28;20478;-61
2021/11/28 08:38:29;;;;;;;24.02;12.80;;;;;;;3.84;77.24;98055.50;4996324;28;20465;-61
2021/11/28 08:40:55;;;;;;;20.27;12.40;;;;;;;3.83;77.51;98046.94;5013840;28;20497;-60
2021/11/28 08:43:20;;;;;;;18.88;12.55;;;;;;;3.83;77.24;98049.50;5012607;28;20072;-61
2021/11/28 08:45:46;;;;;;;20.30;12.18;;;;;;;3.83;77.38;98046.09;5013836;28;20030;-60
2021/11/28 08:48:13;;;;;;;21.08;13.27;;;;;;;3.83;77.38;98056.34;5012856;28;20065;-61
2021/11/28 08:50:39;;;;;;;19.90;12.73;;;;;;;3.84;77.53;98056.34;4996234;28;20041;-61
2021/11/28 08:53:04;;;;;;;22.48;12.70;;;;;;;3.84;77.43;98053.78;5012477;28;20068;-61
2021/11/28 08:55:33;;;;;;;22.38;12.73;;;;;;;3.82;77.43;98055.47;5012641;28;20069;-61
2021/11/28 08:57:58;;;;;;;22.33;14.00;;;;;;;3.83;77.69;98057.19;5013606;28;20030;-61
2021/11/28 09:00:24;;;;;;;18.80;12.02;;;;;;;3.83;77.50;98057.19;4996601;28;20440;-61
2021/11/28 09:02:50;;;;;;;22.35;13.35;;;;;;;3.84;77.07;98055.50;5027356;28;20068;-61
2021/11/28 09:05:19;;;;;;;21.15;14.57;;;;;;;3.84;77.70;98064.06;5015642;28;20037;-61
2021/11/28 09:07:45;;;;;;;21.48;12.93;;;;;;;3.84;77.71;98063.19;5033253;28;20076;-61
2021/11/28 09:10:13;;;;;;;19.42;12.43;;;;;;;3.85;77.56;98062.38;5015721;28;20374;-61
2021/11/28 09:12:39;;;;;;;21.40;13.02;;;;;;;3.85;78.02;98067.50;5015997;28;20046;-61
2021/11/28 09:15:05;;;;;;;21.45;13.38;;;;;;;3.84;77.86;98071.75;5015656;28;20044;-61
2021/11/28 09:17:30;;;;;;;22.77;12.77;;;;;;;3.84;77.53;98069.16;5015668;28;20060;-61
2021/11/28 09:20:06;;;;;;;23.55;13.10;;;;;;;3.84;77.67;98069.16;5015755;28;20128;-61
2021/11/28 09:25:19;;;;;;;24.33;12.50;;;;;;;3.84;77.29;98076.88;5011806;28;20050;-61
2021/11/28 09:27:48;;;;;;;21.75;12.77;;;;;;;3.85;77.97;98072.63;5032997;28;20552;-61
2021/11/28 09:30:16;;;;;;;21.58;12.75;;;;;;;3.86;77.95;98079.47;4999073;28;20045;-61
2021/11/28 09:32:41;;;;;;;19.60;12.90;;;;;;;3.85;77.80;98075.19;5015488;28;20065;-61
2021/11/28 09:35:08;;;;;;;21.02;13.77;;;;;;;3.85;77.86;98081.16;5033193;28;20119;-61
2021/11/28 09:37:34;;;;;;;22.15;13.50;;;;;;;3.84;77.72;98076.03;4998984;28;20029;-62
2021/11/28 09:40:00;;;;;;;22.25;13.20;;;;;;;3.84;77.73;98082.00;5015509;28;20037;-61
2021/11/28 09:42:44;;;;;;;21.20;12.88;;;;;;;3.85;77.47;98082.88;4999013;28;20045;-62
2021/11/28 09:45:10;;;;;;;18.02;11.98;;;;;;;3.85;76.96;98086.28;5015711;28;20120;-61
2021/11/28 09:47:38;;;;;;;20.05;12.80;;;;;;;3.86;78.23;98088.00;5001835;28;20556;-61
2021/11/28 09:50:07;;;;;;;22.13;12.98;;;;;;;3.85;77.62;98083.72;5036775;28;20461;-62
2021/11/28 09:52:33;;;;;;;17.38;12.00;;;;;;;3.86;77.62;98084.59;5019004;28;20029;-61
2021/11/28 09:55:02;;;;;;;21.67;12.82;;;;;;;3.86;77.80;98079.47;5018831;28;20041;-61
2021/11/28 09:57:29;;;;;;;20.30;12.52;;;;;;;3.86;77.28;98077.75;5003117;28;20033;-61
2021/11/28 09:59:56;;;;;;;22.15;12.30;;;;;;;3.86;78.18;98088.00;5036563;28;20064;-61
2021/11/28 10:02:30;;;;;;;20.33;12.85;;;;;;;3.86;77.54;98084.59;5036606;28;20140;-61
2021/11/28 10:04:59;;;;;;;24.23;13.60;;;;;;;3.87;77.97;98088.88;5002240;28;20400;-61
2021/11/28 10:07:25;;;;;;;19.33;11.85;;;;;;;3.87;77.64;98088.88;5036398;28;20410;-60
2021/11/28 10:09:51;;;;;;;22.73;13.13;;;;;;;3.86;77.57;98093.13;5018602;28;20033;-60
2021/11/28 10:12:19;;;;;;;21.55;12.88;;;;;;;3.86;78.16;98097.41;5036438;28;20548;-61
2021/11/28 10:14:51;;;;;;;21.58;12.40;;;;;;;3.87;77.84;98094.84;5036112;28;20037;-61
2021/11/28 10:17:18;;;;;;;20.48;12.68;;;;;;;3.87;77.79;98094.84;5036229;28;20037;-61
2021/11/28 10:19:44;;;;;;;21.08;13.23;;;;;;;3.86;77.63;98098.25;5018994;28;20036;-61
2021/11/28 10:22:09;;;;;;;18.00;11.95;;;;;;;3.86;78.15;98090.56;5036315;28;20116;-61
2021/11/28 10:24:35;;;;;;;17.05;10.75;;;;;;;3.86;77.82;98093.13;5018649;28;20308;-61
2021/11/28 10:27:06;;;;;;;18.63;12.88;;;;;;;3.86;77.81;98090.56;5036165;28;20037;-61
2021/11/28 10:29:42;;;;;;;18.20;12.43;;;;;;;3.87;77.53;98099.97;5001966;28;20556;-61
2021/11/28 10:32:13;;;;;;;20.45;13.00;;;;;;;3.87;77.41;98101.69;5001567;28;20041;-61
2021/11/28 10:34:41;;;;;;;17.50;11.48;;;;;;;3.87;77.94;98096.56;5001877;28;20036;-61
2021/11/28 10:37:14;;;;;;;19.02;13.27;;;;;;;3.87;77.68;98091.44;5018006;28;20045;-61
2021/11/28 10:39:49;;;;;;;18.08;12.57;;;;;;;3.87;78.11;98094.84;5036111;28;20072;-61
2021/11/28 10:42:21;;;;;;;18.98;12.40;;;;;;;3.86;77.88;98097.41;5035863;28;20045;-61
2021/11/28 10:45:01;;;;;;;19.25;12.65;;;;;;;3.87;77.64;98106.81;5018031;28;20382;-60
2021/11/28 10:47:33;;;;;;;19.85;11.88;;;;;;;3.88;77.51;98103.41;5035674;28;20095;-60
2021/11/28 10:50:06;;;;;;;20.40;12.88;;;;;;;3.87;77.95;98110.22;5035728;28;20084;-60
2021/11/28 10:52:35;;;;;;;17.67;11.43;;;;;;;3.88;78.45;98106.81;5035590;28;20037;-61
2021/11/28 10:55:11;;;;;;;17.33;10.80;;;;;;;3.88;77.76;98105.97;5035400;28;20385;-61
2021/11/28 10:57:36;;;;;;;17.63;10.60;;;;;;;3.88;77.73;98106.81;5017767;28;20045;-61
2021/11/28 11:00:03;;;;;;;20.05;12.65;;;;;;;3.88;77.89;98113.66;5035561;28;20029;-61
2021/11/28 11:02:34;;;;;;;17.05;10.95;;;;;;;3.88;77.92;98104.25;5035186;28;20049;-61
2021/11/28 11:05:02;;;;;;;18.73;11.95;;;;;;;3.87;77.54;98115.34;5001365;28;20041;-61
2021/11/28 11:07:40;;;;;;;17.08;11.30;;;;;;;3.88;78.01;98105.97;5017382;28;20041;-61
2021/11/28 11:10:29;;;;;;;19.10;12.88;;;;;;;3.88;77.78;98114.50;5035537;28;20056;-61
2021/11/28 11:12:55;;;;;;;19.00;13.10;;;;;;;3.87;78.06;98111.94;5017864;28;20033;-62
2021/11/28 11:15:39;;;;;;;18.55;13.27;;;;;;;3.87;77.38;98114.50;5001075;28;20120;-61
2021/11/28 11:18:09;;;;;;;18.13;12.40;;;;;;;3.88;77.93;98109.38;5000996;28;20102;-60
2021/11/28 11:20:38;;;;;;;17.15;11.30;;;;;;;3.88;77.83;98109.38;5000975;28;20067;-61
2021/11/28 11:23:05;;;;;;;17.42;11.93;;;;;;;3.87;77.93;98105.09;5001425;28;20099;-61
2021/11/28 11:25:37;;;;;;;18.08;11.20;;;;;;;3.88;78.23;98109.38;5001148;28;20033;-60
2021/11/28 11:28:14;;;;;;;18.55;11.38;;;;;;;3.88;77.72;98108.53;5000894;28;20034;-61
2021/11/28 11:30:41;;;;;;;17.17;10.80;;;;;;;3.89;78.04;98111.09;5034543;28;20116;-60
2021/11/28 11:33:07;;;;;;;16.63;10.75;;;;;;;3.88;78.04;98109.38;5017102;28;20034;-60
2021/11/28 11:35:44;;;;;;;16.77;11.25;;;;;;;3.89;77.71;98118.78;5017433;28;20041;-61
2021/11/28 11:38:18;;;;;;;22.98;12.93;;;;;;;3.89;77.87;98126.47;5000416;28;20032;-61